createdAt,value
2017-12-29T00:01:53.781Z,97558.36
2017-12-29T00:04:22.885Z,97565.53
2017-12-29T00:06:52.351Z,97567.73
2017-12-29T00:09:20.719Z,97575.34
2017-12-29T00:11:49.090Z,97578.09
2017-12-29T00:14:17.476Z,97580.30
2017-12-29T00:16:46.021Z,97578.63
2017-12-29T00:19:14.687Z,97573.28
2017-12-29T00:21:43.277Z,97577.07
2017-12-29T00:24:11.647Z,97580.29
2017-12-29T00:26:40.010Z,97578.59
2017-12-29T00:29:08.394Z,97582.78
2017-12-29T00:31:38.151Z,97581.55
2017-12-29T00:34:06.604Z,97587.97
2017-12-29T00:36:34.958Z,97587.12
2017-12-29T00:39:05.431Z,97592.93
2017-12-29T00:41:34.320Z,97590.83
2017-12-29T00:44:03.096Z,97586.41
2017-12-29T00:46:32.270Z,97589.47
2017-12-29T00:49:02.746Z,97586.47
2017-12-29T00:51:31.109Z,97593.53
2017-12-29T00:53:59.467Z,97599.61
2017-12-29T00:56:27.809Z,97605.52
2017-12-29T00:58:56.168Z,97609.91
2017-12-29T01:01:24.544Z,97620.06
2017-12-29T01:03:52.871Z,97622.52
2017-12-29T01:06:21.228Z,97624.38
2017-12-29T01:08:49.634Z,97628.55
2017-12-29T01:11:17.947Z,97633.06
2017-12-29T01:13:46.259Z,97638.36
2017-12-29T01:16:14.653Z,97632.80
2017-12-29T01:18:42.980Z,97639.06
2017-12-29T01:21:11.295Z,97634.83
2017-12-29T01:23:40.013Z,97640.02
2017-12-29T01:26:08.484Z,97640.89
2017-12-29T01:28:36.798Z,97641.64
2017-12-29T01:31:05.792Z,97641.27
2017-12-29T01:33:34.294Z,97644.27
2017-12-29T01:36:04.512Z,97649.90
2017-12-29T01:38:32.915Z,97656.50
2017-12-29T01:41:01.836Z,97660.34
2017-12-29T01:43:30.297Z,97665.11
2017-12-29T01:45:58.692Z,97667.30
2017-12-29T01:48:27.011Z,97672.08
2017-12-29T01:50:55.335Z,97673.52
2017-12-29T01:53:23.696Z,97680.45
2017-12-29T01:55:52.091Z,97679.91
2017-12-29T01:58:20.415Z,97685.72
2017-12-29T02:00:48.839Z,97680.31
2017-12-29T02:03:17.548Z,97681.83
2017-12-29T02:05:45.870Z,97685.86
2017-12-29T02:08:14.270Z,97690.52
2017-12-29T02:10:42.595Z,97692.02
2017-12-29T02:13:10.943Z,97691.97
2017-12-29T02:15:40.826Z,97695.30
2017-12-29T02:18:10.126Z,97699.68
2017-12-29T02:20:38.722Z,97689.50
2017-12-29T02:23:08.330Z,97691.52
2017-12-29T02:25:36.698Z,97693.08
2017-12-29T02:28:05.019Z,97689.92
2017-12-29T02:30:33.408Z,97695.21
2017-12-29T02:33:02.299Z,97695.21
2017-12-29T02:35:30.663Z,97697.45
2017-12-29T02:38:00.535Z,97702.72
2017-12-29T02:40:28.884Z,97706.81
2017-12-29T02:42:57.208Z,97704.14
2017-12-29T02:45:25.607Z,97706.91
2017-12-29T02:47:53.940Z,97712.05
2017-12-29T02:50:22.247Z,97704.91
2017-12-29T02:52:51.316Z,97711.03
2017-12-29T02:55:19.648Z,97706.16
2017-12-29T02:57:47.740Z,97708.81
2017-12-29T03:00:16.132Z,97713.45
2017-12-29T03:02:44.468Z,97710.88
2017-12-29T03:05:12.796Z,97715.83
2017-12-29T03:07:41.189Z,97718.05
2017-12-29T03:10:10.030Z,97719.75
2017-12-29T03:12:38.346Z,97720.41
2017-12-29T03:15:06.721Z,97717.33
2017-12-29T03:17:35.047Z,97720.70
2017-12-29T03:20:04.659Z,97719.78
2017-12-29T03:22:33.028Z,97718.92
2017-12-29T03:25:01.351Z,97718.92
2017-12-29T03:27:29.671Z,97710.40
2017-12-29T03:29:58.050Z,97706.05
2017-12-29T03:32:26.368Z,97707.52
2017-12-29T03:34:54.685Z,97708.22
2017-12-29T03:37:23.088Z,97705.17
2017-12-29T03:39:51.407Z,97707.72
2017-12-29T03:42:20.198Z,97711.77
2017-12-29T03:44:52.590Z,97714.09
2017-12-29T03:47:22.360Z,97717.28
2017-12-29T03:49:50.677Z,97720.35
2017-12-29T03:52:20.294Z,97721.64
2017-12-29T03:54:48.644Z,97721.75
2017-12-29T03:57:16.968Z,97725.57
2017-12-29T03:59:45.326Z,97734.69
2017-12-29T04:02:13.643Z,97732.92
2017-12-29T04:04:42.478Z,97734.94
2017-12-29T04:07:12.404Z,97737.95
2017-12-29T04:09:41.440Z,97737.89
2017-12-29T04:12:10.642Z,97732.40
2017-12-29T04:14:39.694Z,97734.76
2017-12-29T04:17:08.901Z,97738.40
2017-12-29T04:19:37.888Z,97737.97
2017-12-29T04:22:06.263Z,97735.48
2017-12-29T04:24:34.596Z,97731.52
2017-12-29T04:27:03.515Z,97728.98
2017-12-29T04:29:32.632Z,97725.86
2017-12-29T04:32:02.069Z,97725.53
2017-12-29T04:34:30.407Z,97721.25
2017-12-29T04:36:59.913Z,97723.47
2017-12-29T04:39:29.022Z,97723.86
2017-12-29T04:41:57.429Z,97718.38
2017-12-29T04:44:27.148Z,97719.33
2017-12-29T04:46:56.291Z,97720.41
2017-12-29T04:49:25.438Z,97729.58
2017-12-29T04:51:53.849Z,97725.00
2017-12-29T04:54:22.177Z,97723.42
2017-12-29T04:56:50.484Z,97717.61
2017-12-29T04:59:19.253Z,97721.08
2017-12-29T05:01:47.964Z,97715.09
2017-12-29T05:04:16.348Z,97722.41
2017-12-29T05:06:45.512Z,97718.59
2017-12-29T05:09:13.872Z,97724.08
2017-12-29T05:11:42.287Z,97729.14
2017-12-29T05:14:10.651Z,97722.72
2017-12-29T05:16:38.965Z,97727.63
2017-12-29T05:19:07.587Z,97724.28
2017-12-29T05:21:37.232Z,97730.67
2017-12-29T05:24:05.568Z,97725.22
2017-12-29T05:26:33.998Z,97724.72
2017-12-29T05:29:02.314Z,97736.69
2017-12-29T05:31:30.715Z,97735.13
2017-12-29T05:33:59.133Z,97737.03
2017-12-29T05:36:27.468Z,97737.09
2017-12-29T05:38:55.800Z,97733.41
2017-12-29T05:41:24.155Z,97736.99
2017-12-29T05:43:52.471Z,97737.08
2017-12-29T05:46:20.822Z,97741.54
2017-12-29T05:48:49.374Z,97740.59
2017-12-29T05:51:18.196Z,97742.73
2017-12-29T05:53:46.703Z,97736.38
2017-12-29T05:56:15.369Z,97732.77
2017-12-29T05:58:43.935Z,97733.67
2017-12-29T06:01:12.248Z,97736.72
2017-12-29T06:03:40.604Z,97740.17
2017-12-29T06:06:08.928Z,97734.53
2017-12-29T06:08:37.231Z,97721.86
2017-12-29T06:11:05.751Z,97722.70
2017-12-29T06:13:34.055Z,97718.09
2017-12-29T06:16:02.497Z,97715.03
2017-12-29T06:18:30.870Z,97714.52
2017-12-29T06:20:59.372Z,97723.17
2017-12-29T06:23:28.248Z,97715.08
2017-12-29T06:25:56.631Z,97722.37
2017-12-29T06:28:24.940Z,97717.70
2017-12-29T06:30:53.676Z,97714.30
2017-12-29T06:33:22.050Z,97718.80
2017-12-29T06:35:50.380Z,97719.63
2017-12-29T06:38:18.729Z,97721.89
2017-12-29T06:40:47.372Z,97723.10
2017-12-29T06:43:15.687Z,97727.08
2017-12-29T06:45:44.013Z,97719.73
2017-12-29T06:48:13.151Z,97725.64
2017-12-29T06:50:41.901Z,97728.91
2017-12-29T06:53:10.216Z,97728.91
2017-12-29T06:55:38.591Z,97734.98
2017-12-29T06:58:06.904Z,97742.34
2017-12-29T07:00:35.235Z,97738.02
2017-12-29T07:03:04.371Z,97745.31
2017-12-29T07:05:32.679Z,97748.15
2017-12-29T07:08:01.000Z,97747.38
2017-12-29T07:10:29.767Z,97748.69
2017-12-29T07:12:58.694Z,97745.23
2017-12-29T07:15:27.031Z,97734.64
2017-12-29T07:17:55.407Z,97730.52
2017-12-29T07:20:23.720Z,97732.92
2017-12-29T07:22:52.384Z,97737.48
2017-12-29T07:25:20.800Z,97741.84
2017-12-29T07:27:49.128Z,97749.27
2017-12-29T07:30:18.259Z,97742.83
2017-12-29T07:32:46.744Z,97742.83
2017-12-29T07:35:15.068Z,97746.30
2017-12-29T07:37:43.384Z,97749.66
2017-12-29T07:40:11.772Z,97752.81
2017-12-29T07:42:40.684Z,97756.84
2017-12-29T07:45:09.617Z,97768.08
2017-12-29T07:47:37.976Z,97770.73
2017-12-29T07:50:06.923Z,97769.78
2017-12-29T07:52:35.675Z,97771.70
2017-12-29T07:55:05.007Z,97762.24
2017-12-29T07:57:34.211Z,97762.96
2017-12-29T08:00:02.554Z,97759.19
2017-12-29T08:02:31.622Z,97767.45
2017-12-29T08:04:59.951Z,97772.31
2017-12-29T08:07:28.960Z,97768.75
2017-12-29T08:09:57.349Z,97772.11
2017-12-29T08:12:25.680Z,97768.86
2017-12-29T08:14:54.007Z,97775.39
2017-12-29T08:17:22.884Z,97772.02
2017-12-29T08:19:51.218Z,97776.77
2017-12-29T08:22:19.541Z,97773.17
2017-12-29T08:24:47.927Z,97773.23
2017-12-29T08:27:16.250Z,97778.08
2017-12-29T08:29:44.573Z,97776.30
2017-12-29T08:32:12.977Z,97779.60
2017-12-29T08:34:41.287Z,97780.95
2017-12-29T08:37:09.605Z,97779.27
2017-12-29T08:39:38.078Z,97780.94
2017-12-29T08:42:06.415Z,97778.87
2017-12-29T08:44:34.741Z,97775.61
2017-12-29T08:47:04.052Z,97776.79
2017-12-29T08:49:32.366Z,97772.62
2017-12-29T08:52:00.677Z,97770.13
2017-12-29T08:54:29.176Z,97769.48
2017-12-29T08:56:57.703Z,97765.30
2017-12-29T08:59:26.021Z,97772.41
2017-12-29T09:01:54.408Z,97767.61
2017-12-29T09:04:22.728Z,97763.48
2017-12-29T09:06:51.183Z,97760.25
2017-12-29T09:09:20.119Z,97762.65
2017-12-29T09:11:48.446Z,97765.30
2017-12-29T09:14:16.979Z,97762.58
2017-12-29T09:16:45.671Z,97767.19
2017-12-29T09:19:14.096Z,97769.44
2017-12-29T09:21:43.179Z,97768.25
2017-12-29T09:24:12.029Z,97777.50
2017-12-29T09:26:40.512Z,97774.49
2017-12-29T09:29:09.608Z,97768.59
2017-12-29T09:31:38.041Z,97773.26
2017-12-29T09:34:07.229Z,97770.34
2017-12-29T09:36:36.364Z,97764.78
2017-12-29T09:39:06.316Z,97760.63
2017-12-29T09:41:39.952Z,97757.88
2017-12-29T09:44:08.832Z,97758.45
2017-12-29T09:46:37.908Z,97751.14
2017-12-29T09:49:07.256Z,97743.81
2017-12-29T09:51:35.612Z,97746.39
2017-12-29T09:54:05.432Z,97738.55
2017-12-29T09:56:35.115Z,97734.16
2017-12-29T09:59:04.728Z,97728.53
2017-12-29T10:01:33.873Z,97729.61
2017-12-29T10:04:12.448Z,97722.56
2017-12-29T10:06:42.116Z,97711.39
2017-12-29T10:09:11.057Z,97708.16
2017-12-29T10:11:40.251Z,97693.34
2017-12-29T10:14:10.100Z,97689.98
2017-12-29T10:16:38.892Z,97677.48
2017-12-29T10:19:08.248Z,97670.44
2017-12-29T10:21:37.348Z,97663.63
2017-12-29T10:24:07.907Z,97656.23
2017-12-29T10:26:37.308Z,97647.20
2017-12-29T10:29:06.416Z,97647.17
2017-12-29T10:31:35.538Z,97646.23
2017-12-29T10:34:05.224Z,97643.23
2017-12-29T10:36:34.350Z,97647.03
2017-12-29T10:39:05.238Z,97642.75
2017-12-29T10:41:33.979Z,97639.22
2017-12-29T10:44:02.893Z,97638.51
2017-12-29T10:46:32.412Z,97636.82
2017-12-29T10:49:01.552Z,97634.41
2017-12-29T10:51:29.915Z,97631.23
2017-12-29T10:53:59.249Z,97623.19
2017-12-29T10:56:27.684Z,97621.73
2017-12-29T10:58:56.332Z,97621.45
2017-12-29T11:01:24.648Z,97623.58
2017-12-29T11:03:53.006Z,97612.77
2017-12-29T11:06:21.479Z,97627.05
2017-12-29T11:08:49.796Z,97617.70
2017-12-29T11:11:18.243Z,97619.40
2017-12-29T11:13:46.564Z,97625.20
2017-12-29T11:16:14.895Z,97620.94
2017-12-29T11:18:43.361Z,97620.00
2017-12-29T11:21:11.688Z,97618.19
2017-12-29T11:23:40.007Z,97615.33
2017-12-29T11:26:08.426Z,97601.95
2017-12-29T11:28:36.736Z,97600.44
2017-12-29T11:31:05.041Z,97601.14
2017-12-29T11:33:33.420Z,97598.34
2017-12-29T11:36:01.741Z,97602.98
2017-12-29T11:38:30.099Z,97594.49
2017-12-29T11:40:59.092Z,97593.31
2017-12-29T11:43:27.421Z,97585.08
2017-12-29T11:45:57.008Z,97582.70
2017-12-29T11:48:26.647Z,97581.88
2017-12-29T11:50:55.903Z,97579.16
2017-12-29T11:53:24.471Z,97576.16
2017-12-29T11:55:53.040Z,97573.84
2017-12-29T11:58:21.875Z,97570.27
2017-12-29T12:00:51.280Z,97561.13
2017-12-29T12:03:20.551Z,97558.96
2017-12-29T12:05:49.156Z,97557.62
2017-12-29T12:08:19.459Z,97558.77
2017-12-29T12:10:50.848Z,97554.76
2017-12-29T12:13:20.818Z,97549.48
2017-12-29T12:15:50.033Z,97550.75
2017-12-29T12:18:19.080Z,97553.84
2017-12-29T12:20:47.492Z,97546.33
2017-12-29T12:23:15.971Z,97540.13
2017-12-29T12:25:44.300Z,97535.19
2017-12-29T12:28:12.670Z,97527.83
2017-12-29T12:30:41.011Z,97518.55
2017-12-29T12:33:09.356Z,97507.88
2017-12-29T12:35:37.716Z,97506.23
2017-12-29T12:38:06.047Z,97504.75
2017-12-29T12:40:34.360Z,97509.98
2017-12-29T12:43:02.759Z,97502.83
2017-12-29T12:45:31.160Z,97500.42
2017-12-29T12:47:59.896Z,97499.02
2017-12-29T12:50:28.460Z,97495.98
2017-12-29T12:52:57.444Z,97485.86
2017-12-29T12:55:26.643Z,97475.80
2017-12-29T12:57:55.580Z,97474.83
2017-12-29T13:00:24.657Z,97459.66
2017-12-29T13:02:53.943Z,97447.77
2017-12-29T13:05:23.027Z,97458.34
2017-12-29T13:07:51.943Z,97454.09
2017-12-29T13:10:20.404Z,97451.10
2017-12-29T13:12:49.073Z,97434.95
2017-12-29T13:15:18.983Z,97427.47
2017-12-29T13:17:47.587Z,97422.56
2017-12-29T13:20:16.759Z,97424.89
2017-12-29T13:22:45.535Z,97421.69
2017-12-29T13:25:14.163Z,97418.27
2017-12-29T13:27:43.248Z,97419.89
2017-12-29T13:30:12.001Z,97421.62
2017-12-29T13:32:40.928Z,97422.44
2017-12-29T13:35:09.711Z,97426.52
2017-12-29T13:37:38.460Z,97426.37
2017-12-29T13:40:07.283Z,97411.23
2017-12-29T13:42:36.003Z,97406.28
2017-12-29T13:45:05.118Z,97400.17
2017-12-29T13:47:33.548Z,97403.96
2017-12-29T13:50:02.548Z,97408.28
2017-12-29T13:52:31.676Z,97408.78
2017-12-29T13:55:00.232Z,97400.42
2017-12-29T13:57:28.931Z,97407.28
2017-12-29T13:59:57.663Z,97412.08
2017-12-29T14:02:26.479Z,97409.98
2017-12-29T14:04:55.483Z,97404.62
2017-12-29T14:07:23.808Z,97392.90
2017-12-29T14:09:52.835Z,97388.34
2017-12-29T14:12:21.148Z,97386.20
2017-12-29T14:14:49.471Z,97386.28
2017-12-29T14:17:18.894Z,97387.31
2017-12-29T14:19:47.237Z,97381.81
2017-12-29T14:22:15.553Z,97378.03
2017-12-29T14:24:43.928Z,97375.23
2017-12-29T14:27:12.259Z,97372.94
2017-12-29T14:29:40.576Z,97365.45
2017-12-29T14:32:08.985Z,97356.65
2017-12-29T14:34:38.056Z,97354.44
2017-12-29T14:37:06.397Z,97349.16
2017-12-29T14:39:34.815Z,97340.22
2017-12-29T14:42:03.141Z,97340.34
2017-12-29T14:44:31.507Z,97342.72
2017-12-29T14:47:00.016Z,97336.68
2017-12-29T14:49:28.345Z,97337.60
2017-12-29T14:51:56.698Z,97331.88
2017-12-29T14:54:25.160Z,97329.18
2017-12-29T14:56:53.505Z,97317.73
2017-12-29T14:59:21.815Z,97309.38
2017-12-29T15:01:50.167Z,97302.72
2017-12-29T15:04:19.395Z,97295.63
2017-12-29T15:06:47.699Z,97285.89
2017-12-29T15:09:16.051Z,97285.25
2017-12-29T15:11:44.364Z,97275.77
2017-12-29T15:14:12.672Z,97271.73
2017-12-29T15:16:41.134Z,97269.86
2017-12-29T15:19:09.444Z,97251.31
2017-12-29T15:21:38.541Z,97255.48
2017-12-29T15:24:07.032Z,97254.09
2017-12-29T15:26:35.524Z,97242.53
2017-12-29T15:29:04.641Z,97239.69
2017-12-29T15:31:33.639Z,97231.92
2017-12-29T15:34:02.666Z,97220.92
2017-12-29T15:36:31.023Z,97214.72
2017-12-29T15:38:59.925Z,97219.89
2017-12-29T15:41:28.445Z,97226.17
2017-12-29T15:43:57.163Z,97220.59
2017-12-29T15:46:25.652Z,97211.17
2017-12-29T15:48:53.960Z,97201.44
2017-12-29T15:51:26.461Z,97204.81
2017-12-29T15:53:54.792Z,97203.78
2017-12-29T15:56:23.153Z,97202.47
2017-12-29T15:58:51.613Z,97196.19
2017-12-29T16:01:35.483Z,97192.41
2017-12-29T16:04:03.873Z,97176.55
2017-12-29T16:06:32.228Z,97174.13
2017-12-29T16:09:00.597Z,97172.57
2017-12-29T16:11:28.984Z,97163.13
2017-12-29T16:13:57.291Z,97159.05
2017-12-29T16:16:25.591Z,97154.90
2017-12-29T16:18:54.001Z,97141.72
2017-12-29T16:21:22.369Z,97139.42
2017-12-29T16:23:50.713Z,97133.08
2017-12-29T16:26:19.129Z,97125.13
2017-12-29T16:28:47.494Z,97123.88
2017-12-29T16:31:15.821Z,97112.28
2017-12-29T16:33:44.347Z,97107.80
2017-12-29T16:36:12.713Z,97101.43
2017-12-29T16:38:41.801Z,97096.73
2017-12-29T16:41:10.229Z,97097.75
2017-12-29T16:43:38.609Z,97110.08
2017-12-29T16:46:06.998Z,97101.05
2017-12-29T16:48:35.540Z,97107.41
2017-12-29T16:51:04.593Z,97107.88
2017-12-29T16:53:36.844Z,97100.97
2017-12-29T16:56:05.206Z,97081.19
2017-12-29T16:58:34.325Z,97075.86
2017-12-29T17:01:03.301Z,97056.31
2017-12-29T17:03:31.662Z,97053.95
2017-12-29T17:05:59.975Z,97035.98
2017-12-29T17:08:29.136Z,97041.33
2017-12-29T17:10:58.016Z,97040.78
2017-12-29T17:13:26.450Z,97038.98
2017-12-29T17:15:56.553Z,97043.92
2017-12-29T17:18:25.670Z,97036.00
2017-12-29T17:20:54.734Z,97018.12
2017-12-29T17:23:23.779Z,97014.17
2017-12-29T17:25:52.940Z,97008.70
2017-12-29T17:28:21.841Z,97010.25
2017-12-29T17:30:50.785Z,97008.39
2017-12-29T17:33:19.364Z,97009.66
2017-12-29T17:35:47.717Z,96996.47
2017-12-29T17:38:16.752Z,97006.98
2017-12-29T17:40:45.631Z,97005.08
2017-12-29T17:43:14.842Z,96993.17
2017-12-29T17:45:43.428Z,97004.52
2017-12-29T17:48:12.201Z,96998.14
2017-12-29T17:50:41.482Z,96991.88
2017-12-29T17:53:10.497Z,96988.11
2017-12-29T17:55:39.467Z,96990.78
2017-12-29T17:58:08.545Z,96982.73
2017-12-29T18:00:37.753Z,96975.36
2017-12-29T18:03:06.190Z,96976.14
2017-12-29T18:05:34.992Z,96966.27
2017-12-29T18:08:04.196Z,96967.05
2017-12-29T18:10:33.148Z,96958.99
2017-12-29T18:13:02.283Z,96968.39
2017-12-29T18:15:31.186Z,96960.93
2017-12-29T18:17:59.706Z,96955.38
2017-12-29T18:20:28.151Z,96962.32
2017-12-29T18:22:57.062Z,96949.64
2017-12-29T18:25:26.299Z,96951.84
2017-12-29T18:27:55.085Z,96942.66
2017-12-29T18:30:24.287Z,96947.75
2017-12-29T18:32:53.416Z,96954.42
2017-12-29T18:35:21.838Z,96936.25
2017-12-29T18:37:50.806Z,96941.31
2017-12-29T18:40:19.886Z,96940.88
2017-12-29T18:42:49.168Z,96941.71
2017-12-29T18:45:17.887Z,96931.92
2017-12-29T18:47:46.298Z,96946.04
2017-12-29T18:50:16.142Z,96937.66
2017-12-29T18:52:44.545Z,96932.95
2017-12-29T18:55:13.807Z,96937.64
2017-12-29T18:57:46.019Z,96933.70
2017-12-29T19:00:15.227Z,96929.33
2017-12-29T19:02:44.223Z,96922.35
2017-12-29T19:05:13.369Z,96923.45
2017-12-29T19:07:42.389Z,96933.59
2017-12-29T19:10:10.754Z,96927.34
2017-12-29T19:12:39.612Z,96931.58
2017-12-29T19:15:09.722Z,96927.52
2017-12-29T19:17:38.814Z,96922.89
2017-12-29T19:20:08.795Z,96919.77
2017-12-29T19:22:37.967Z,96926.01
2017-12-29T19:25:07.894Z,96919.52
2017-12-29T19:27:36.463Z,96915.20
2017-12-29T19:30:05.118Z,96912.55
2017-12-29T19:32:34.323Z,96921.11
2017-12-29T19:35:03.307Z,96919.69
2017-12-29T19:37:32.372Z,96916.39
2017-12-29T19:40:01.819Z,96909.13
2017-12-29T19:42:30.578Z,96895.73
2017-12-29T19:44:59.814Z,96891.42
2017-12-29T19:47:28.667Z,96888.26
2017-12-29T19:49:57.047Z,96908.33
2017-12-29T19:52:26.295Z,96918.84
2017-12-29T19:54:55.312Z,96916.23
2017-12-29T19:57:24.387Z,96925.17
2017-12-29T19:59:53.454Z,96936.03
2017-12-29T20:02:22.728Z,96932.41
2017-12-29T20:04:51.763Z,96937.49
2017-12-29T20:07:24.014Z,96944.52
2017-12-29T20:09:53.114Z,96945.16
2017-12-29T20:12:22.160Z,96942.32
2017-12-29T20:14:50.770Z,96942.42
2017-12-29T20:17:19.783Z,96953.29
2017-12-29T20:19:48.689Z,96949.55
2017-12-29T20:22:17.902Z,96955.34
2017-12-29T20:24:46.846Z,96956.60
2017-12-29T20:27:16.059Z,96958.70
2017-12-29T20:29:44.507Z,96962.09
2017-12-29T20:32:13.299Z,96968.19
2017-12-29T20:34:42.506Z,96965.45
2017-12-29T20:37:11.044Z,96960.58
2017-12-29T20:39:39.810Z,96965.31
2017-12-29T20:42:08.609Z,96963.25
2017-12-29T20:44:38.026Z,96971.39
2017-12-29T20:47:07.118Z,96974.17
2017-12-29T20:49:36.961Z,96974.94
2017-12-29T20:52:06.267Z,96982.09
2017-12-29T20:54:37.634Z,96981.13
2017-12-29T20:57:06.413Z,96982.34
2017-12-29T20:59:37.319Z,96985.86
2017-12-29T21:02:05.765Z,96990.15
2017-12-29T21:04:34.922Z,96989.61
2017-12-29T21:07:03.315Z,96991.25
2017-12-29T21:09:32.265Z,96985.55
2017-12-29T21:12:01.447Z,96998.47
2017-12-29T21:14:30.560Z,97009.20
2017-12-29T21:19:54.309Z,97026.75
2017-12-29T21:22:23.050Z,97033.63
2017-12-29T21:24:51.694Z,97043.27
2017-12-29T21:27:20.527Z,97043.22
2017-12-29T21:29:49.575Z,97054.19
2017-12-29T21:32:18.620Z,97066.59
2017-12-29T21:34:47.079Z,97069.96
2017-12-29T21:37:16.129Z,97074.61
2017-12-29T21:39:44.491Z,97076.56
2017-12-29T21:42:13.415Z,97081.52
2017-12-29T21:44:42.944Z,97093.51
2017-12-29T21:47:12.761Z,97093.14
2017-12-29T21:49:43.175Z,97108.11
2017-12-29T21:52:12.791Z,97115.63
2017-12-29T21:54:41.887Z,97117.14
2017-12-29T21:57:10.690Z,97123.12
2017-12-29T21:59:39.130Z,97122.51
2017-12-29T22:02:07.513Z,97121.56
2017-12-29T22:04:36.451Z,97119.99
2017-12-29T22:07:04.911Z,97122.97
2017-12-29T22:09:33.351Z,97119.70
2017-12-29T22:12:02.124Z,97126.59
2017-12-29T22:14:31.062Z,97125.11
2017-12-29T22:16:59.550Z,97127.32
2017-12-29T22:19:28.571Z,97134.76
2017-12-29T22:21:57.671Z,97146.83
2017-12-29T22:24:26.083Z,97151.48
2017-12-29T22:26:54.919Z,97151.09
2017-12-29T22:29:23.320Z,97163.55
2017-12-29T22:31:53.299Z,97176.25
2017-12-29T22:34:22.365Z,97172.66
2017-12-29T22:36:51.407Z,97180.19
2017-12-29T22:39:19.880Z,97189.92
2017-12-29T22:41:48.860Z,97192.34
2017-12-29T22:44:17.402Z,97193.77
2017-12-29T22:46:46.237Z,97210.64
2017-12-29T22:49:15.440Z,97208.69
2017-12-29T22:51:44.526Z,97222.11
2017-12-29T22:54:13.637Z,97224.53
2017-12-29T22:56:42.710Z,97227.98
2017-12-29T22:59:11.370Z,97232.02
2017-12-29T23:01:39.974Z,97239.70
2017-12-29T23:04:08.934Z,97246.38
2017-12-29T23:06:37.307Z,97250.53
2017-12-29T23:09:06.574Z,97256.50
2017-12-29T23:11:35.527Z,97266.55
2017-12-29T23:14:04.139Z,97268.89
2017-12-29T23:16:32.916Z,97283.79
2017-12-29T23:19:02.125Z,97288.73
2017-12-29T23:21:31.935Z,97299.80
2017-12-29T23:24:01.126Z,97307.37
2017-12-29T23:26:30.068Z,97300.70
2017-12-29T23:28:58.438Z,97320.79
2017-12-29T23:31:27.594Z,97328.27
2017-12-29T23:33:56.521Z,97328.22
2017-12-29T23:36:25.566Z,97332.32
2017-12-29T23:38:55.555Z,97344.66
2017-12-29T23:41:24.300Z,97352.36
2017-12-29T23:43:54.567Z,97359.84
2017-12-29T23:46:23.386Z,97369.59
2017-12-29T23:48:52.805Z,97370.31
2017-12-29T23:51:21.621Z,97372.30
2017-12-29T23:53:50.179Z,97385.11
2017-12-29T23:56:19.252Z,97380.08
2017-12-29T23:58:48.345Z,97389.41
